Terminal Aerodrome Forecast
Issued by NWS Sterling, VA

Current Version | Previous Version | Text Only | Print | Product List | Glossary Off
Versions: 1 2 3 4 5 6 7 8 9 10 11 12 13 14 15 16 17 18 19 20 21 22 23 24 25

000
FTUS41 KLWX 272009 AAC
TAFDCA
TAF AMD
KDCA 272009Z 2720/2818 13003KT P6SM VCTS SCT025CB SCT100
      TEMPO 2720/2722 VRB25KT 1SM TSRA BKN015CB
     FM280400 16005KT P6SM SCT050 BKN060
     FM280500 17005KT P6SM FEW050 SCT250
     FM280900 00000KT 5SM BR FEW050 SCT250
     FM281300 00000KT P6SM SCT250
     FM281700 05005KT P6SM SCT050=

USA.gov is the U.S. government's official web portal to all federal, state and local government web resources and services.